Anthony, Idaho
Current Conditions -  °F | °C
As of 9:53 AM on Tuesday 27 Jan 2015 (Local Time) from KRXE Reporting Station
Clear Clear  
Wind Chill: 26°   Ceiling: Unl
Heat Index: 32°   Visibility: 10mi
Dew Point: 20°   Wind: 6mph
Humidity: 61%   Direction: 70°ENE
Pressure: 30.17"   Gusts: NA
Location:  44.2887°N, 111.507°W
Report Text: KRXE 271653Z AUTO 07005KT 10SM CLR 00/M07 A3017 RMK AO2 SLP245 T00001067
Loading
Personal Weather Stations






























Interactive Weather Map New forecast layout! Learn more

10-Day Weather Forecast

Advertisements
Track Severe Weather on mobile